Time;durP1;ratioP1;P1;durP2;ratioP2;P2;SDS_P1;SDS_P2;PMS_P1;PMS_P2;Temp;Humidity;BMP_temperature;BMP_pressure;BME280_temperature;BME280_humidity;BME280_pressure;Samples;Min_cycle;Max_cycle;Signal;HPM_P1;HPM_P2
2023/07/02 03:18:47;;;;;;;4.40;1.25;;;18.60;99.90;;;;;;6069164;23;87314;-70
2023/07/02 03:21:13;;;;;;;3.15;1.17;;;18.60;99.90;;;;;;6068828;23;87295;-71
2023/07/02 03:23:40;;;;;;;2.50;0.82;;;18.50;99.90;;;;;;6068497;23;90700;-71
2023/07/02 03:26:05;;;;;;;2.75;1.20;;;18.40;99.90;;;;;;6068607;23;89099;-70
2023/07/02 03:28:33;;;;;;;2.22;1.00;;;18.40;99.90;;;;;;6068939;23;87485;-71
2023/07/02 03:30:59;;;;;;;3.25;0.95;;;18.40;99.90;;;;;;6069518;23;87299;-70
2023/07/02 03:33:24;;;;;;;3.35;1.40;;;18.40;99.90;;;;;;6068532;23;88220;-72
2023/07/02 03:35:50;;;;;;;3.58;1.77;;;18.40;99.90;;;;;;6068207;23;87849;-71
2023/07/02 03:38:16;;;;;;;3.75;1.58;;;18.40;99.90;;;;;;6092085;23;88171;-70
2023/07/02 03:40:41;;;;;;;3.65;1.70;;;18.40;99.90;;;;;;6069674;23;86881;-71
2023/07/02 03:43:07;;;;;;;3.70;1.90;;;18.40;99.90;;;;;;6069095;23;88944;-73
2023/07/02 03:45:32;;;;;;;4.38;1.85;;;18.40;99.90;;;;;;6068954;23;87439;-72
2023/07/02 03:47:58;;;;;;;4.88;1.90;;;18.30;99.90;;;;;;6068596;23;88287;-70
2023/07/02 03:50:24;;;;;;;3.28;1.77;;;18.20;99.90;;;;;;6068872;23;87277;-71
2023/07/02 03:52:49;;;;;;;4.03;2.05;;;18.20;99.90;;;;;;6067745;23;88377;-71
2023/07/02 03:55:15;;;;;;;4.03;1.63;;;18.10;99.90;;;;;;6068322;23;87282;-71
2023/07/02 03:57:41;;;;;;;4.50;1.40;;;18.10;99.90;;;;;;6068896;23;87208;-71
2023/07/02 04:00:07;;;;;;;4.45;1.55;;;18.20;99.90;;;;;;6068978;23;87332;-72
2023/07/02 04:02:33;;;;;;;3.13;1.25;;;18.20;99.90;;;;;;6069087;23;87949;-71
2023/07/02 04:04:59;;;;;;;2.90;1.23;;;18.30;99.90;;;;;;6069225;23;87465;-75
2023/07/02 04:07:24;;;;;;;6.65;1.33;;;18.30;99.90;;;;;;6069160;23;87353;-70
2023/07/02 04:09:50;;;;;;;2.83;1.13;;;18.30;99.90;;;;;;6069189;23;87296;-73
2023/07/02 04:12:15;;;;;;;3.65;1.40;;;18.40;99.90;;;;;;6068083;23;88703;-72
2023/07/02 04:14:42;;;;;;;2.90;1.10;;;18.40;99.90;;;;;;6068928;23;88231;-71
2023/07/02 04:17:08;;;;;;;3.75;1.92;;;18.40;99.90;;;;;;6068861;23;87299;-69
2023/07/02 04:19:33;;;;;;;3.22;1.50;;;18.40;99.90;;;;;;6068931;23;86918;-73
2023/07/02 04:21:59;;;;;;;5.03;1.92;;;18.30;99.90;;;;;;6068537;23;88416;-71
2023/07/02 04:24:25;;;;;;;4.45;1.85;;;18.30;99.90;;;;;;6068460;23;87949;-70
2023/07/02 04:26:51;;;;;;;5.80;2.20;;;18.30;99.90;;;;;;6069231;23;87354;-71
2023/07/02 04:29:17;;;;;;;7.43;2.58;;;18.30;99.90;;;;;;6069740;23;86736;-69
2023/07/02 04:31:43;;;;;;;5.85;2.38;;;18.20;99.90;;;;;;6068127;23;87523;-71
2023/07/02 04:34:08;;;;;;;4.40;2.10;;;18.30;99.90;;;;;;6068407;23;87369;-72
2023/07/02 04:36:34;;;;;;;4.32;2.10;;;18.20;99.90;;;;;;6068550;23;88320;-70
2023/07/02 04:39:00;;;;;;;7.22;2.10;;;18.30;99.90;;;;;;6068525;23;87049;-72
2023/07/02 04:41:27;;;;;;;5.93;2.10;;;18.30;99.90;;;;;;6068780;23;88878;-71
2023/07/02 04:43:52;;;;;;;4.80;1.95;;;18.30;99.90;;;;;;6068764;23;87898;-71
2023/07/02 04:46:18;;;;;;;3.67;1.95;;;18.20;99.90;;;;;;6068862;23;87205;-71
2023/07/02 04:48:44;;;;;;;7.32;1.83;;;18.20;99.90;;;;;;6069083;23;87410;-69
2023/07/02 04:51:09;;;;;;;4.72;1.88;;;18.20;99.90;;;;;;6068333;23;88196;-71
2023/07/02 04:53:37;;;;;;;7.97;2.10;;;18.20;99.90;;;;;;6068837;23;88279;-71
2023/07/02 04:56:03;;;;;;;7.20;1.77;;;18.20;99.90;;;;;;6068771;23;87023;-71
2023/07/02 04:58:29;;;;;;;5.45;2.05;;;18.20;99.90;;;;;;6069135;23;87602;-70
2023/07/02 05:00:54;;;;;;;5.20;1.52;;;18.20;99.90;;;;;;6067618;23;89282;-70
2023/07/02 05:03:20;;;;;;;3.80;1.67;;;18.20;99.90;;;;;;6067696;23;88805;-70
2023/07/02 05:05:46;;;;;;;3.67;1.50;;;18.20;99.90;;;;;;6064176;23;87480;-71
2023/07/02 05:08:11;;;;;;;5.30;1.83;;;18.30;99.90;;;;;;6065409;23;87469;-70
2023/07/02 05:10:37;;;;;;;4.75;1.98;;;18.40;99.90;;;;;;6065912;23;89026;-72
2023/07/02 05:13:02;;;;;;;5.85;2.13;;;18.30;99.90;;;;;;6067734;23;87834;-74
2023/07/02 05:15:28;;;;;;;9.13;3.20;;;18.30;99.90;;;;;;6065417;23;87622;-71
2023/07/02 05:17:54;;;;;;;6.85;3.42;;;18.30;99.90;;;;;;6066745;23;86760;-70
2023/07/02 05:20:19;;;;;;;10.32;3.28;;;18.40;99.90;;;;;;6064393;23;88885;-71
2023/07/02 05:22:45;;;;;;;8.30;3.72;;;18.40;99.90;;;;;;6067581;23;87395;-70
2023/07/02 05:25:11;;;;;;;10.65;4.40;;;18.30;99.90;;;;;;6065128;23;88419;-71
2023/07/02 05:27:36;;;;;;;10.80;4.50;;;18.30;99.90;;;;;;6067118;23;87344;-71
2023/07/02 05:30:03;;;;;;;16.30;5.88;;;18.20;99.90;;;;;;6068311;23;88015;-73
2023/07/02 05:32:28;;;;;;;11.43;6.00;;;18.30;99.90;;;;;;6067977;23;87759;-70
2023/07/02 05:34:54;;;;;;;14.10;5.53;;;18.30;99.90;;;;;;6068640;23;87381;-70
2023/07/02 05:37:19;;;;;;;13.35;5.55;;;18.30;99.90;;;;;;6067855;23;87484;-72
2023/07/02 05:39:45;;;;;;;13.00;5.57;;;18.30;99.90;;;;;;6066385;23;88538;-73
2023/07/02 05:42:11;;;;;;;13.90;5.30;;;18.30;98.80;;;;;;6068304;23;87956;-70
2023/07/02 05:44:36;;;;;;;14.48;5.90;;;18.30;99.10;;;;;;6068547;23;86940;-71
2023/07/02 05:47:02;;;;;;;13.20;5.90;;;18.30;99.90;;;;;;6068794;23;87203;-72
2023/07/02 05:49:28;;;;;;;16.63;6.32;;;18.30;98.90;;;;;;6068039;23;88377;-71
2023/07/02 05:51:53;;;;;;;12.73;5.88;;;18.30;98.80;;;;;;6067305;23;89040;-71
2023/07/02 05:54:19;;;;;;;13.25;5.72;;;18.40;98.10;;;;;;6067863;23;88571;-74
2023/07/02 05:56:45;;;;;;;15.38;6.20;;;18.50;97.40;;;;;;6068552;23;87097;-71
2023/07/02 05:59:12;;;;;;;11.20;5.53;;;18.50;98.70;;;;;;6068137;23;87683;-71
2023/07/02 06:01:38;;;;;;;11.77;5.32;;;18.50;98.80;;;;;;6066813;23;87569;-73
2023/07/02 06:04:03;;;;;;;14.18;4.97;;;18.50;97.70;;;;;;6068269;23;87534;-73
2023/07/02 06:06:29;;;;;;;12.10;4.97;;;18.50;96.70;;;;;;6068874;23;86674;-71
2023/07/02 06:08:54;;;;;;;14.65;5.40;;;18.40;98.00;;;;;;6067174;23;88215;-72
2023/07/02 06:11:20;;;;;;;15.38;4.70;;;18.40;97.40;;;;;;6068157;23;88364;-72
2023/07/02 06:13:46;;;;;;;9.93;4.72;;;18.40;97.40;;;;;;6067722;23;88546;-72
2023/07/02 06:16:11;;;;;;;10.65;4.45;;;18.50;96.70;;;;;;6067486;23;87482;-73
2023/07/02 06:18:37;;;;;;;10.75;4.50;;;18.50;96.30;;;;;;6067543;23;88094;-70
2023/07/02 06:21:03;;;;;;;13.82;4.93;;;18.50;96.70;;;;;;6067269;23;87303;-71
2023/07/02 06:23:30;;;;;;;11.15;4.78;;;18.60;96.90;;;;;;6068092;23;87571;-74
2023/07/02 06:25:58;;;;;;;10.90;4.88;;;18.70;97.00;;;;;;6068327;23;87404;-73
2023/07/02 06:28:26;;;;;;;10.35;4.32;;;18.80;96.80;;;;;;6068154;23;87499;-72
2023/07/02 06:30:52;;;;;;;11.10;4.35;;;18.90;96.10;;;;;;6067459;23;87800;-71
2023/07/02 06:33:17;;;;;;;8.90;3.83;;;18.80;95.50;;;;;;6067740;23;87566;-70
2023/07/02 06:35:43;;;;;;;10.20;4.13;;;18.90;96.70;;;;;;6068764;23;87450;-70
2023/07/02 06:38:08;;;;;;;6.97;3.67;;;19.00;96.00;;;;;;6066793;23;89548;-68
2023/07/02 06:40:34;;;;;;;8.35;3.72;;;19.00;94.90;;;;;;6067635;23;88883;-66
2023/07/02 06:43:00;;;;;;;7.32;2.88;;;19.00;95.00;;;;;;6067734;23;87532;-66
2023/07/02 06:45:25;;;;;;;8.45;3.55;;;19.20;94.10;;;;;;6067321;23;87429;-66
2023/07/02 06:47:51;;;;;;;7.03;3.25;;;19.30;94.00;;;;;;6067843;23;87344;-66
2023/07/02 06:50:17;;;;;;;8.25;3.13;;;19.30;94.20;;;;;;6069103;23;88849;-67
2023/07/02 06:52:42;;;;;;;7.60;3.10;;;19.30;94.60;;;;;;6068438;23;87469;-65
2023/07/02 06:55:08;;;;;;;10.52;3.40;;;19.30;93.90;;;;;;6069232;23;86503;-66
2023/07/02 06:57:34;;;;;;;6.50;3.10;;;19.40;93.90;;;;;;6069270;23;88368;-67
2023/07/02 07:00:00;;;;;;;7.43;2.90;;;19.40;93.70;;;;;;6068108;23;88227;-65
2023/07/02 07:02:27;;;;;;;7.55;3.22;;;19.50;94.10;;;;;;6068596;23;88326;-67
2023/07/02 07:04:53;;;;;;;6.32;2.95;;;19.50;94.00;;;;;;6068644;23;87411;-66
2023/07/02 07:07:19;;;;;;;5.85;2.97;;;19.60;94.40;;;;;;6068973;23;87888;-66
2023/07/02 07:09:45;;;;;;;6.25;3.13;;;19.60;92.40;;;;;;6069046;23;87973;-65
2023/07/02 07:12:10;;;;;;;7.07;2.55;;;19.70;93.10;;;;;;6068920;23;87326;-65
2023/07/02 07:14:36;;;;;;;7.05;2.90;;;19.70;94.00;;;;;;6068885;23;87057;-67
2023/07/02 07:17:05;;;;;;;9.07;3.20;;;19.70;92.80;;;;;;6067697;23;88578;-66
2023/07/02 07:19:30;;;;;;;7.70;2.80;;;19.70;92.90;;;;;;6068920;23;88451;-65
2023/07/02 07:21:56;;;;;;;9.32;3.20;;;19.80;92.90;;;;;;6068891;23;86988;-66
2023/07/02 07:24:21;;;;;;;8.25;2.95;;;19.90;92.90;;;;;;6068805;23;87454;-66
2023/07/02 07:26:47;;;;;;;6.47;3.20;;;19.90;93.00;;;;;;6068095;23;88848;-67
2023/07/02 07:29:13;;;;;;;8.40;3.80;;;19.90;92.70;;;;;;6067628;23;89047;-66
2023/07/02 07:31:39;;;;;;;7.53;3.55;;;19.70;91.90;;;;;;6066359;23;87532;-67
2023/07/02 07:34:05;;;;;;;6.45;2.95;;;19.70;92.60;;;;;;6067265;23;87379;-67
2023/07/02 07:36:30;;;;;;;10.10;3.60;;;19.80;92.70;;;;;;6066054;23;88291;-66
2023/07/02 07:38:56;;;;;;;11.65;3.53;;;19.90;92.40;;;;;;6065539;23;88754;-66
2023/07/02 07:41:22;;;;;;;8.45;3.75;;;20.00;92.30;;;;;;6067935;23;87509;-66
2023/07/02 07:43:47;;;;;;;9.07;3.80;;;20.10;92.20;;;;;;6069261;23;86522;-67
2023/07/02 07:46:13;;;;;;;9.95;3.88;;;20.20;90.70;;;;;;6067838;23;87689;-66
2023/07/02 07:48:39;;;;;;;11.15;3.95;;;20.20;92.10;;;;;;6067335;23;88506;-66
2023/07/02 07:51:04;;;;;;;7.97;3.65;;;20.30;91.40;;;;;;6068079;23;88301;-66
2023/07/02 07:53:30;;;;;;;8.25;3.90;;;20.40;90.20;;;;;;6069271;23;87331;-65
2023/07/02 07:55:56;;;;;;;9.38;3.55;;;20.50;89.20;;;;;;6068321;23;87377;-66
2023/07/02 07:58:21;;;;;;;6.75;3.13;;;20.60;90.00;;;;;;6068067;23;88322;-66
2023/07/02 08:00:47;;;;;;;9.05;3.13;;;20.80;90.20;;;;;;6068452;23;87413;-65
2023/07/02 08:03:13;;;;;;;7.20;2.97;;;20.90;88.40;;;;;;6068915;23;87014;-65
2023/07/02 08:05:38;;;;;;;9.65;3.63;;;21.10;88.30;;;;;;6067856;23;87760;-65
2023/07/02 08:08:04;;;;;;;8.93;3.70;;;21.20;86.60;;;;;;6068805;23;86743;-66
2023/07/02 08:10:30;;;;;;;9.15;4.47;;;21.20;85.80;;;;;;6067969;23;87520;-66
2023/07/02 08:12:55;;;;;;;9.55;4.40;;;21.00;85.80;;;;;;6066311;23;87312;-66
2023/07/02 08:15:21;;;;;;;10.20;3.88;;;20.90;86.60;;;;;;6063806;23;89409;-66
2023/07/02 08:17:47;;;;;;;8.63;3.63;;;20.80;86.00;;;;;;6065263;23;87566;-65
2023/07/02 08:20:13;;;;;;;8.48;3.70;;;20.80;86.80;;;;;;6066393;23;87415;-65
2023/07/02 08:22:40;;;;;;;9.35;3.80;;;20.70;87.00;;;;;;6065121;23;87569;-66
2023/07/02 08:25:06;;;;;;;9.05;4.07;;;20.60;87.60;;;;;;6064632;23;88698;-67
2023/07/02 08:27:32;;;;;;;8.13;3.72;;;20.50;87.80;;;;;;6066661;23;88347;-66
2023/07/02 08:29:58;;;;;;;9.95;3.65;;;20.40;89.00;;;;;;6066918;23;87430;-65
2023/07/02 08:32:23;;;;;;;7.05;3.35;;;20.40;89.00;;;;;;6065843;23;86857;-67
2023/07/02 08:34:50;;;;;;;8.45;3.25;;;20.40;88.60;;;;;;6062805;23;88220;-66
2023/07/02 08:37:16;;;;;;;7.00;3.42;;;20.40;89.60;;;;;;6065875;23;88669;-66
2023/07/02 08:39:42;;;;;;;6.63;3.05;;;20.40;90.00;;;;;;6062567;23;88903;-67
2023/07/02 08:42:08;;;;;;;11.52;4.05;;;20.40;90.20;;;;;;6065665;23;87539;-66
2023/07/02 08:44:35;;;;;;;8.63;3.47;;;20.40;90.80;;;;;;6063229;23;87981;-66
2023/07/02 08:47:01;;;;;;;7.22;3.45;;;20.40;90.40;;;;;;6068207;23;88647;-67
2023/07/02 08:49:27;;;;;;;9.65;3.47;;;20.50;90.20;;;;;;6067152;23;87318;-65
2023/07/02 08:51:53;;;;;;;12.73;4.20;;;20.50;90.60;;;;;;6067472;23;87475;-66
2023/07/02 08:54:19;;;;;;;16.08;5.70;;;20.50;89.50;;;;;;6067481;23;87620;-67
2023/07/02 08:56:46;;;;;;;10.70;4.35;;;20.60;88.00;;;;;;6065641;23;88274;-66
2023/07/02 08:59:12;;;;;;;18.10;6.53;;;20.70;88.50;;;;;;6059362;23;87440;-67
2023/07/02 09:01:52;;;;;;;21.05;7.07;;;20.80;88.10;;;;;;6065709;23;87220;-66
2023/07/02 09:04:28;;;;;;;11.50;5.85;;;20.80;88.30;;;;;;6067172;23;88951;-66
2023/07/02 09:07:08;;;;;;;15.20;6.35;;;20.80;87.30;;;;;;6066970;23;89098;-66
2023/07/02 09:09:48;;;;;;;12.88;4.65;;;20.80;87.70;;;;;;6067804;23;87328;-66
2023/07/02 09:12:31;;;;;;;12.77;5.70;;;20.90;87.50;;;;;;6067495;23;87358;-66
2023/07/02 09:14:58;;;;;;;15.07;6.05;;;20.90;87.10;;;;;;6066834;23;88584;-67
2023/07/02 09:17:31;;;;;;;15.55;5.38;;;20.90;88.20;;;;;;6060804;23;88365;-66
2023/07/02 09:20:01;;;;;;;18.75;6.70;;;20.90;88.30;;;;;;6060070;23;87807;-66
2023/07/02 09:22:28;;;;;;;17.20;6.10;;;20.90;88.30;;;;;;6063077;23;86591;-67
2023/07/02 09:24:57;;;;;;;13.50;5.68;;;20.90;89.40;;;;;;6062649;23;87929;-66
2023/07/02 09:27:35;;;;;;;15.77;6.20;;;20.90;89.00;;;;;;6055707;23;88005;-68
2023/07/02 09:30:10;;;;;;;15.25;6.32;;;20.90;90.00;;;;;;6058804;23;88425;-67
2023/07/02 09:32:36;;;;;;;9.90;4.93;;;20.90;90.10;;;;;;6059780;23;87882;-66
2023/07/02 09:35:01;;;;;;;14.73;4.95;;;21.10;89.70;;;;;;6057315;23;87780;-66
2023/07/02 09:37:28;;;;;;;11.25;4.75;;;21.50;88.90;;;;;;6058078;23;88247;-67
2023/07/02 09:39:56;;;;;;;18.30;5.40;;;21.70;86.30;;;;;;6057544;23;87581;-66
2023/07/02 09:42:21;;;;;;;13.27;5.75;;;22.00;84.80;;;;;;6062363;23;87535;-66
2023/07/02 09:44:51;;;;;;;13.90;6.10;;;22.00;84.60;;;;;;6059015;23;88536;-66
2023/07/02 09:47:18;;;;;;;10.38;5.43;;;21.90;84.30;;;;;;6061338;23;87480;-67
2023/07/02 09:50:05;;;;;;;14.80;4.78;;;21.90;84.30;;;;;;6059030;23;87484;-66
2023/07/02 09:52:33;;;;;;;12.90;5.95;;;22.20;83.90;;;;;;6064229;23;87405;-67
2023/07/02 09:54:59;;;;;;;11.65;5.63;;;22.60;82.50;;;;;;6064760;23;89381;-66
2023/07/02 09:57:26;;;;;;;11.45;5.28;;;22.70;81.20;;;;;;6061930;23;89301;-66
2023/07/02 09:59:52;;;;;;;15.40;6.18;;;22.80;81.10;;;;;;6058394;23;87560;-67
2023/07/02 10:02:18;;;;;;;14.63;5.85;;;22.90;80.50;;;;;;6059272;23;87717;-67
2023/07/02 10:04:45;;;;;;;15.13;6.47;;;22.90;80.40;;;;;;6057860;23;87739;-65
2023/07/02 10:07:12;;;;;;;13.82;6.43;;;22.80;79.40;;;;;;6064135;23;87296;-66
2023/07/02 10:09:39;;;;;;;13.20;6.80;;;22.70;79.60;;;;;;6066176;23;86919;-66
2023/07/02 10:12:24;;;;;;;17.13;6.65;;;22.60;80.00;;;;;;6061146;23;86857;-66
2023/07/02 10:14:52;;;;;;;17.75;6.47;;;22.30;79.30;;;;;;6061052;23;88073;-66
2023/07/02 10:17:30;;;;;;;13.93;6.28;;;22.30;80.10;;;;;;6060635;23;88045;-66
2023/07/02 10:19:59;;;;;;;13.90;6.88;;;22.30;80.50;;;;;;6052462;23;88696;-66
2023/07/02 10:22:25;;;;;;;11.30;5.93;;;22.30;80.80;;;;;;6061117;23;87406;-65
2023/07/02 10:25:00;;;;;;;17.98;7.13;;;22.30;80.60;;;;;;6063691;23;87895;-65
2023/07/02 10:27:36;;;;;;;15.30;6.20;;;22.30;81.50;;;;;;6063088;23;87619;-66
2023/07/02 10:30:04;;;;;;;17.42;6.57;;;22.40;80.70;;;;;;6062093;23;88114;-66
2023/07/02 10:32:31;;;;;;;12.63;6.03;;;22.30;82.10;;;;;;6062347;23;87610;-66
2023/07/02 10:34:58;;;;;;;13.45;6.43;;;22.20;81.80;;;;;;6062075;23;88329;-66
2023/07/02 10:37:24;;;;;;;13.43;5.55;;;22.30;81.30;;;;;;6060995;23;87932;-66
2023/07/02 10:39:51;;;;;;;14.02;6.05;;;22.40;80.00;;;;;;6056971;23;87445;-66
2023/07/02 10:42:17;;;;;;;14.63;5.88;;;22.30;80.70;;;;;;6062445;23;87476;-66
2023/07/02 10:44:53;;;;;;;16.27;5.55;;;22.20;80.90;;;;;;6058861;23;89193;-67
2023/07/02 10:47:19;;;;;;;14.98;5.93;;;22.20;81.60;;;;;;6062928;23;89496;-66
2023/07/02 10:49:45;;;;;;;13.85;6.38;;;22.30;81.40;;;;;;6062084;23;87278;-65
2023/07/02 10:52:10;;;;;;;12.32;5.65;;;22.40;80.40;;;;;;6060513;23;88318;-66
2023/07/02 10:54:40;;;;;;;13.52;5.70;;;22.50;79.00;;;;;;6060782;23;88397;-66
2023/07/02 10:57:09;;;;;;;15.10;5.60;;;22.60;79.30;;;;;;6064687;23;87821;-66
2023/07/02 10:59:35;;;;;;;12.35;5.63;;;22.70;79.30;;;;;;6062911;23;87379;-66
2023/07/02 11:02:02;;;;;;;13.23;5.63;;;23.00;78.10;;;;;;6062274;23;86456;-68
2023/07/02 11:04:28;;;;;;;11.82;5.50;;;23.50;77.00;;;;;;6056740;23;88983;-66
2023/07/02 11:06:54;;;;;;;10.90;5.50;;;24.20;76.70;;;;;;6057542;23;87709;-66
2023/07/02 11:09:24;;;;;;;10.15;5.18;;;24.90;73.60;;;;;;6058630;23;88533;-66
2023/07/02 11:11:57;;;;;;;13.35;5.30;;;25.30;71.50;;;;;;6061908;23;87596;-66
2023/07/02 11:14:30;;;;;;;14.52;5.45;;;25.50;68.20;;;;;;6063536;23;89413;-67
2023/07/02 11:16:57;;;;;;;11.07;5.10;;;25.80;69.40;;;;;;6064263;23;87498;-66
2023/07/02 11:19:22;;;;;;;16.98;7.53;;;26.00;68.10;;;;;;6057831;23;87505;-67
2023/07/02 11:21:56;;;;;;;14.32;7.43;;;25.80;68.00;;;;;;6061276;23;87358;-66
2023/07/02 11:24:37;;;;;;;14.82;7.85;;;25.50;68.60;;;;;;6061192;23;88073;-66
2023/07/02 11:27:05;;;;;;;16.42;7.53;;;25.20;68.60;;;;;;6058521;23;87971;-66
2023/07/02 11:29:32;;;;;;;14.10;6.93;;;25.30;69.00;;;;;;6058413;23;87612;-66
2023/07/02 11:32:10;;;;;;;15.88;6.63;;;25.10;68.60;;;;;;6059892;23;87613;-66
2023/07/02 11:34:36;;;;;;;15.90;7.07;;;24.90;69.30;;;;;;6060287;23;89854;-66
2023/07/02 11:37:03;;;;;;;13.80;5.93;;;24.70;69.80;;;;;;6061472;23;88781;-67
2023/07/02 11:39:29;;;;;;;12.60;6.07;;;24.50;71.10;;;;;;6059111;23;87552;-66
2023/07/02 11:41:55;;;;;;;14.07;6.28;;;24.30;72.30;;;;;;6061039;23;87616;-65
2023/07/02 11:44:21;;;;;;;13.57;6.55;;;24.40;72.70;;;;;;6063304;23;88130;-66
2023/07/02 11:46:47;;;;;;;12.75;6.22;;;24.60;71.60;;;;;;6063191;23;87403;-66
2023/07/02 11:49:13;;;;;;;12.80;6.10;;;24.60;70.60;;;;;;6064288;23;87545;-65
2023/07/02 11:51:40;;;;;;;14.20;6.60;;;24.70;71.10;;;;;;6064389;23;86782;-65
2023/07/02 11:54:07;;;;;;;12.20;6.07;;;24.60;71.70;;;;;;6065717;23;88028;-67
2023/07/02 11:56:33;;;;;;;14.35;6.35;;;24.70;71.00;;;;;;6057831;23;88355;-67
2023/07/02 11:58:59;;;;;;;12.35;5.38;;;25.00;71.00;;;;;;6064855;23;88516;-67
2023/07/02 12:01:25;;;;;;;11.88;6.13;;;25.40;70.10;;;;;;6035804;23;87503;-67
2023/07/02 12:03:51;;;;;;;13.05;6.28;;;25.90;69.30;;;;;;6054725;23;88355;-66
2023/07/02 12:06:17;;;;;;;12.38;6.43;;;26.00;66.90;;;;;;6050694;23;87336;-67
2023/07/02 12:08:42;;;;;;;13.57;6.63;;;25.90;67.20;;;;;;6057083;23;87665;-66
2023/07/02 12:11:08;;;;;;;12.60;6.20;;;25.80;66.90;;;;;;6063664;23;87362;-65
2023/07/02 12:13:34;;;;;;;12.75;6.40;;;25.50;67.50;;;;;;6056831;23;89239;-66
2023/07/02 12:15:59;;;;;;;12.05;5.85;;;25.40;67.10;;;;;;6063692;23;88067;-66
2023/07/02 12:18:25;;;;;;;9.73;5.28;;;25.10;67.90;;;;;;6065601;23;87296;-65
2023/07/02 12:20:51;;;;;;;11.40;5.30;;;24.80;68.50;;;;;;6067534;23;87290;-66
2023/07/02 12:23:16;;;;;;;10.95;5.03;;;24.80;68.70;;;;;;6065074;23;88796;-65
2023/07/02 12:25:42;;;;;;;10.30;5.32;;;24.80;68.60;;;;;;6060952;23;87960;-66
2023/07/02 12:28:08;;;;;;;11.13;5.65;;;24.60;69.60;;;;;;6058997;23;87301;-67
2023/07/02 12:30:33;;;;;;;14.10;6.28;;;24.50;69.30;;;;;;6063605;23;87544;-67
2023/07/02 12:32:59;;;;;;;8.73;4.70;;;24.30;70.10;;;;;;6063826;23;87727;-65
2023/07/02 12:35:25;;;;;;;7.43;4.05;;;24.10;70.50;;;;;;6062893;23;87953;-65
2023/07/02 12:37:52;;;;;;;15.48;8.15;;;24.30;72.00;;;;;;6062019;23;87018;-66
2023/07/02 12:40:20;;;;;;;9.20;4.25;;;24.60;71.20;;;;;;6063744;23;86493;-67
2023/07/02 12:42:46;;;;;;;10.18;4.85;;;24.70;68.90;;;;;;6062884;23;87925;-66
2023/07/02 12:45:13;;;;;;;8.10;4.25;;;24.60;69.60;;;;;;6061938;23;87347;-66
2023/07/02 12:47:40;;;;;;;9.77;4.75;;;24.70;69.20;;;;;;6064623;23;88495;-66
2023/07/02 12:50:07;;;;;;;9.63;4.50;;;25.00;70.50;;;;;;6063710;23;87347;-66
2023/07/02 12:52:33;;;;;;;9.65;4.28;;;25.30;69.60;;;;;;6064833;23;87533;-66
2023/07/02 12:54:59;;;;;;;8.35;4.30;;;25.60;70.20;;;;;;6060514;23;87989;-66
2023/07/02 12:57:28;;;;;;;10.88;5.05;;;25.60;67.00;;;;;;6065072;23;87527;-66
2023/07/02 12:59:55;;;;;;;7.75;4.07;;;25.20;66.70;;;;;;6066605;23;87279;-66
2023/07/02 13:02:22;;;;;;;9.88;4.53;;;25.00;68.50;;;;;;6065923;23;88057;-66
2023/07/02 13:04:48;;;;;;;9.38;5.55;;;24.80;68.60;;;;;;6064867;23;87477;-66
2023/07/02 13:07:13;;;;;;;11.23;5.00;;;24.80;68.50;;;;;;6063425;23;87445;-65
2023/07/02 13:09:39;;;;;;;9.35;4.10;;;24.80;69.10;;;;;;6064340;23;87462;-65
2023/07/02 13:12:05;;;;;;;8.73;4.50;;;24.90;67.50;;;;;;6063815;23;88877;-66
2023/07/02 13:14:32;;;;;;;8.63;4.25;;;25.10;68.10;;;;;;6063302;23;89884;-66
2023/07/02 13:17:02;;;;;;;8.25;4.70;;;25.30;69.60;;;;;;6059169;23;88839;-66
2023/07/02 13:19:28;;;;;;;10.27;4.65;;;25.60;69.70;;;;;;6063736;23;87494;-66
2023/07/02 13:21:54;;;;;;;21.67;4.47;;;25.90;68.60;;;;;;6063330;23;87886;-66
2023/07/02 13:24:20;;;;;;;8.40;4.53;;;26.20;67.20;;;;;;6063457;23;87909;-68
2023/07/02 13:26:45;;;;;;;8.43;4.22;;;26.30;66.50;;;;;;6062840;23;87262;-68
2023/07/02 13:29:11;;;;;;;11.68;4.40;;;26.40;64.20;;;;;;6066143;23;86533;-66
2023/07/02 13:31:37;;;;;;;9.35;5.03;;;26.70;66.70;;;;;;6063132;23;87611;-66
2023/07/02 13:34:03;;;;;;;8.55;4.60;;;26.80;66.20;;;;;;6064933;23;87645;-68
2023/07/02 13:36:28;;;;;;;11.65;5.30;;;26.80;62.70;;;;;;6064134;23;88246;-66
2023/07/02 13:38:55;;;;;;;9.45;4.35;;;26.70;63.30;;;;;;6064000;23;88112;-67
2023/07/02 13:41:21;;;;;;;8.35;4.30;;;26.70;62.40;;;;;;6065087;23;87482;-66
2023/07/02 13:43:47;;;;;;;8.75;5.10;;;26.50;62.40;;;;;;6065355;23;87340;-65
2023/07/02 13:46:12;;;;;;;11.20;4.85;;;26.40;62.50;;;;;;6039830;23;87430;-66
2023/07/02 13:48:39;;;;;;;9.23;5.10;;;26.30;63.00;;;;;;6066858;23;87900;-66
2023/07/02 13:51:04;;;;;;;9.32;5.10;;;26.40;65.60;;;;;;6065504;23;88037;-65
2023/07/02 13:53:30;;;;;;;9.52;4.70;;;26.30;64.10;;;;;;6068804;23;87324;-66
2023/07/02 13:55:56;;;;;;;10.25;4.28;;;26.10;63.40;;;;;;6068007;23;87408;-66
2023/07/02 13:58:23;;;;;;;9.60;4.57;;;26.00;64.20;;;;;;6068340;23;87340;-66
2023/07/02 14:00:48;;;;;;;10.10;4.60;;;25.90;64.50;;;;;;6066834;23;89152;-66
2023/07/02 14:03:14;;;;;;;8.98;4.85;;;25.60;64.80;;;;;;6066747;23;88843;-65
2023/07/02 14:05:40;;;;;;;10.63;5.10;;;25.50;66.60;;;;;;6068700;23;87352;-65
2023/07/02 14:08:06;;;;;;;10.68;4.70;;;25.50;65.90;;;;;;6068407;23;87367;-65
2023/07/02 14:10:32;;;;;;;8.10;4.28;;;25.30;65.10;;;;;;6068427;23;87656;-65
2023/07/02 14:12:57;;;;;;;9.25;4.13;;;25.40;65.60;;;;;;6066471;23;88297;-65
2023/07/02 14:15:25;;;;;;;10.73;5.85;;;25.70;64.10;;;;;;6067838;23;87574;-65
2023/07/02 14:17:50;;;;;;;9.70;4.28;;;25.80;64.10;;;;;;6069537;23;86697;-65
2023/07/02 14:20:16;;;;;;;8.95;5.03;;;26.00;64.40;;;;;;6067120;23;87512;-68
2023/07/02 14:22:42;;;;;;;10.25;5.03;;;26.50;65.20;;;;;;6067548;23;87702;-65
2023/07/02 14:25:08;;;;;;;8.77;5.25;;;26.40;63.50;;;;;;6067676;23;88297;-64
2023/07/02 14:27:33;;;;;;;11.98;4.80;;;26.10;64.60;;;;;;6068349;23;87295;-65
2023/07/02 14:30:00;;;;;;;9.20;5.07;;;25.90;65.60;;;;;;6068352;23;88574;-64
2023/07/02 14:32:26;;;;;;;12.38;4.85;;;25.80;64.90;;;;;;6068595;23;87304;-63
2023/07/02 14:34:52;;;;;;;9.65;4.78;;;25.70;63.90;;;;;;6068579;23;87448;-65
2023/07/02 14:37:18;;;;;;;9.88;5.03;;;25.60;64.20;;;;;;6067641;23;87523;-64
2023/07/02 14:39:43;;;;;;;12.15;4.40;;;25.50;64.10;;;;;;6066645;23;87292;-65
2023/07/02 14:42:09;;;;;;;12.38;5.05;;;25.50;65.80;;;;;;6067530;23;88108;-64
2023/07/02 14:44:35;;;;;;;15.02;6.07;;;25.80;66.40;;;;;;6068475;23;87021;-64
2023/07/02 14:47:00;;;;;;;12.27;4.40;;;26.30;64.60;;;;;;6069548;23;87268;-65
2023/07/02 14:49:26;;;;;;;9.82;4.85;;;26.60;63.30;;;;;;6068779;23;88658;-65
2023/07/02 14:51:52;;;;;;;11.18;5.65;;;26.80;63.40;;;;;;6068706;23;89093;-64
2023/07/02 14:54:18;;;;;;;9.98;5.45;;;26.90;64.90;;;;;;6069019;23;87312;-64
2023/07/02 14:56:44;;;;;;;13.20;5.05;;;26.90;62.60;;;;;;6070418;23;87324;-65
2023/07/02 14:59:13;;;;;;;11.30;5.30;;;26.80;62.20;;;;;;6068583;23;89808;-65
2023/07/02 15:01:40;;;;;;;9.10;4.82;;;26.70;62.10;;;;;;6068813;23;87309;-64
2023/07/02 15:04:05;;;;;;;9.38;4.53;;;26.60;61.00;;;;;;6069073;23;86981;-64
2023/07/02 15:06:32;;;;;;;9.63;5.03;;;26.50;62.60;;;;;;6070336;23;86679;-65
2023/07/02 15:08:58;;;;;;;9.82;4.57;;;26.50;62.00;;;;;;6068839;23;88061;-64
2023/07/02 15:11:24;;;;;;;11.95;5.25;;;26.50;62.60;;;;;;6068974;23;88204;-65
2023/07/02 15:13:49;;;;;;;9.15;5.10;;;26.30;63.00;;;;;;6069200;23;88151;-65
2023/07/02 15:16:15;;;;;;;12.15;4.97;;;26.30;63.40;;;;;;6068399;23;87331;-64
2023/07/02 15:18:41;;;;;;;10.10;5.10;;;26.20;64.30;;;;;;6068580;23;88235;-65
2023/07/02 15:21:07;;;;;;;11.60;5.20;;;26.20;64.70;;;;;;6068884;23;88050;-64
2023/07/02 15:23:33;;;;;;;11.63;5.18;;;26.30;64.10;;;;;;6069350;23;87340;-65
2023/07/02 15:26:00;;;;;;;9.38;5.07;;;26.40;62.90;;;;;;6069200;23;87526;-64
2023/07/02 15:28:28;;;;;;;11.70;4.95;;;26.50;63.50;;;;;;6068859;23;88007;-65
2023/07/02 15:30:55;;;;;;;10.32;5.20;;;26.70;61.20;;;;;;6069503;23;88369;-64
2023/07/02 15:33:22;;;;;;;9.90;4.95;;;27.00;61.10;;;;;;6068849;23;87453;-64
2023/07/02 15:35:48;;;;;;;11.45;5.55;;;27.20;60.00;;;;;;6069560;23;87459;-65
2023/07/02 15:38:14;;;;;;;11.57;5.30;;;27.30;59.30;;;;;;6068380;23;88947;-65
2023/07/02 15:40:40;;;;;;;10.77;5.55;;;27.30;59.50;;;;;;6068353;23;88532;-65
2023/07/02 15:43:06;;;;;;;15.02;5.72;;;27.20;61.30;;;;;;6069456;23;87008;-65
2023/07/02 15:45:31;;;;;;;8.38;5.03;;;27.20;60.70;;;;;;6069346;23;87227;-64
2023/07/02 15:47:57;;;;;;;10.93;5.15;;;27.10;61.00;;;;;;6068589;23;87811;-64
2023/07/02 15:50:26;;;;;;;9.70;5.10;;;26.90;61.20;;;;;;6068125;23;87517;-65
2023/07/02 15:52:51;;;;;;;11.82;4.78;;;27.00;60.50;;;;;;6069264;23;87505;-65
2023/07/02 15:55:18;;;;;;;11.48;5.28;;;26.80;61.50;;;;;;6069169;23;86715;-65